createdAt,value
2023-04-30T00:00:38.846Z,8.80
2023-04-30T00:03:32.129Z,9.00
2023-04-30T00:06:21.193Z,9.30
2023-04-30T00:09:10.355Z,8.90
2023-04-30T00:11:59.557Z,10.60
2023-04-30T00:14:49.410Z,10.40
2023-04-30T00:17:38.822Z,13.10
2023-04-30T00:20:27.765Z,11.70
2023-04-30T00:30:30.871Z,14.50
2023-04-30T00:33:20.010Z,15.50
2023-04-30T00:36:25.465Z,16.20
2023-04-30T00:39:14.483Z,15.00
2023-04-30T00:42:03.455Z,15.00
2023-04-30T00:44:52.331Z,15.50
2023-04-30T00:47:41.566Z,13.40
2023-04-30T00:50:30.726Z,14.10
2023-04-30T00:53:20.433Z,15.10
2023-04-30T00:56:10.740Z,14.80
2023-04-30T00:59:00.068Z,12.50
2023-04-30T01:06:11.504Z,9.30
2023-04-30T01:09:01.208Z,8.80
2023-04-30T01:12:05.923Z,9.40
2023-04-30T01:15:19.875Z,9.70
2023-04-30T01:18:34.148Z,11.00
2023-04-30T01:21:24.468Z,10.00
2023-04-30T01:24:41.498Z,10.50
2023-04-30T01:28:01.877Z,11.00
2023-04-30T01:30:51.208Z,12.10
2023-04-30T01:33:40.612Z,12.60
2023-04-30T01:36:44.995Z,11.10
2023-04-30T01:39:51.672Z,11.50
2023-04-30T01:42:57.188Z,12.40
2023-04-30T01:46:00.678Z,11.00
2023-04-30T01:49:07.407Z,12.50
2023-04-30T01:52:05.047Z,13.40
2023-04-30T01:55:08.141Z,13.30
2023-04-30T01:58:01.471Z,12.80
2023-04-30T02:00:50.865Z,12.50
2023-04-30T02:03:39.703Z,13.20
2023-04-30T02:06:29.939Z,13.10
2023-04-30T02:09:18.765Z,12.30
2023-04-30T02:12:08.132Z,11.50
2023-04-30T02:14:56.810Z,12.20
2023-04-30T02:17:46.199Z,11.30
2023-04-30T02:20:35.002Z,13.20
2023-04-30T02:23:23.863Z,11.50
2023-04-30T02:26:12.675Z,9.90
2023-04-30T02:29:01.721Z,10.40
2023-04-30T02:31:50.599Z,9.90
2023-04-30T02:34:39.315Z,10.30
2023-04-30T02:37:28.046Z,10.00
2023-04-30T02:40:17.031Z,9.70
2023-04-30T02:43:06.558Z,11.40
2023-04-30T02:45:55.607Z,10.90
2023-04-30T02:48:44.431Z,10.10
2023-04-30T02:51:33.173Z,10.50
2023-04-30T02:54:22.175Z,10.90
2023-04-30T02:57:11.381Z,11.30
2023-04-30T03:00:01.110Z,11.50
2023-04-30T03:02:50.168Z,11.70
2023-04-30T03:05:39.508Z,12.10
2023-04-30T03:08:28.421Z,11.50
2023-04-30T03:11:17.189Z,12.10
2023-04-30T03:14:06.134Z,11.10
2023-04-30T03:16:54.735Z,10.60
2023-04-30T03:19:44.098Z,10.70
2023-04-30T03:22:33.883Z,11.00
2023-04-30T03:25:22.951Z,11.30
2023-04-30T03:28:11.533Z,10.50
2023-04-30T03:31:01.082Z,11.10
2023-04-30T03:33:49.749Z,11.90
2023-04-30T03:36:38.687Z,11.40
2023-04-30T03:39:28.053Z,11.00
2023-04-30T03:42:16.842Z,10.60
2023-04-30T03:46:49.515Z,12.10
2023-04-30T03:49:39.220Z,11.10
2023-04-30T03:52:28.535Z,10.50
2023-04-30T03:55:17.659Z,10.00
2023-04-30T03:58:06.502Z,10.50
2023-04-30T04:00:55.905Z,10.50
2023-04-30T04:03:44.608Z,9.50
2023-04-30T04:06:33.835Z,9.10
2023-04-30T04:09:22.939Z,10.40
2023-04-30T04:12:12.435Z,9.10
2023-04-30T04:15:01.432Z,10.40
2023-04-30T04:17:51.720Z,10.20
2023-04-30T04:20:40.769Z,9.10
2023-04-30T04:23:30.650Z,9.00
2023-04-30T04:26:21.582Z,9.20
2023-04-30T04:29:12.501Z,9.40
2023-04-30T04:32:02.887Z,9.60
2023-04-30T04:34:54.503Z,9.40
2023-04-30T04:37:43.038Z,8.90
2023-04-30T04:40:32.341Z,9.30
2023-04-30T04:43:21.099Z,9.00
2023-04-30T04:46:12.992Z,8.70
2023-04-30T04:49:02.867Z,8.70
2023-04-30T04:51:52.491Z,9.00
2023-04-30T04:54:41.410Z,10.30
2023-04-30T04:57:30.673Z,10.00
2023-04-30T05:00:19.386Z,9.10
2023-04-30T05:03:10.327Z,9.00
2023-04-30T05:05:59.701Z,10.20
2023-04-30T05:08:48.871Z,9.90
2023-04-30T05:11:38.609Z,9.10
2023-04-30T05:14:27.779Z,9.20
2023-04-30T05:17:16.400Z,8.70
2023-04-30T05:20:07.571Z,8.80
2023-04-30T05:22:56.217Z,7.90
2023-04-30T05:25:45.640Z,7.90
2023-04-30T05:28:34.207Z,10.10
2023-04-30T05:31:23.623Z,9.10
2023-04-30T05:34:12.272Z,8.80
2023-04-30T05:37:01.924Z,8.40
2023-04-30T05:39:50.561Z,8.30
2023-04-30T05:42:41.299Z,8.10
2023-04-30T05:45:29.907Z,8.60
2023-04-30T05:48:18.986Z,9.00
2023-04-30T05:51:07.548Z,8.80
2023-04-30T05:53:57.807Z,8.50
2023-04-30T05:56:46.589Z,9.10
2023-04-30T05:59:38.364Z,8.50
2023-04-30T06:02:26.957Z,7.40
2023-04-30T06:05:16.406Z,7.80
2023-04-30T06:08:05.222Z,7.70
2023-04-30T06:10:53.933Z,8.40
2023-04-30T06:13:42.671Z,7.30
2023-04-30T06:16:31.815Z,7.60
2023-04-30T06:19:20.998Z,7.60
2023-04-30T06:22:09.917Z,7.00
2023-04-30T06:24:58.555Z,7.20
2023-04-30T06:27:47.776Z,6.90
2023-04-30T06:30:37.094Z,7.00
2023-04-30T06:33:26.266Z,6.20
2023-04-30T06:36:14.834Z,7.00
2023-04-30T06:39:05.382Z,7.10
2023-04-30T06:41:54.066Z,6.80
2023-04-30T06:44:46.342Z,7.20
2023-04-30T06:47:38.129Z,6.30
2023-04-30T06:50:27.308Z,6.30
2023-04-30T06:53:16.022Z,6.20
2023-04-30T06:56:05.366Z,6.40
2023-04-30T06:58:54.025Z,5.50
2023-04-30T07:01:43.206Z,6.10
2023-04-30T07:04:31.992Z,6.00
2023-04-30T07:07:21.075Z,6.40
2023-04-30T07:10:09.922Z,5.40
2023-04-30T07:12:59.681Z,4.40
2023-04-30T07:15:48.179Z,4.80
2023-04-30T07:18:38.209Z,5.00
2023-04-30T07:21:27.957Z,4.60
2023-04-30T07:24:17.113Z,4.10
2023-04-30T07:27:07.406Z,4.50
2023-04-30T07:29:59.407Z,4.90
2023-04-30T07:32:48.580Z,4.30
2023-04-30T07:35:37.587Z,5.00
2023-04-30T07:38:26.348Z,4.50
2023-04-30T07:41:15.227Z,4.80
2023-04-30T07:44:04.768Z,4.40
2023-04-30T07:46:54.067Z,4.30
2023-04-30T07:49:42.653Z,3.80
2023-04-30T07:52:32.583Z,4.00
2023-04-30T07:55:21.327Z,4.10
2023-04-30T07:58:10.324Z,3.80
2023-04-30T08:00:58.828Z,4.20
2023-04-30T08:03:47.851Z,3.90
2023-04-30T08:06:36.621Z,3.90
2023-04-30T08:09:25.496Z,3.30
2023-04-30T08:12:14.217Z,4.20
2023-04-30T08:15:05.258Z,4.30
2023-04-30T08:17:53.910Z,3.80
2023-04-30T08:20:43.027Z,3.70
2023-04-30T08:23:31.675Z,4.30
2023-04-30T08:26:21.389Z,3.50
2023-04-30T08:29:09.984Z,3.80
2023-04-30T08:32:04.418Z,4.10
2023-04-30T08:34:54.412Z,3.80
2023-04-30T08:37:43.551Z,3.60
2023-04-30T08:40:50.267Z,3.50
2023-04-30T08:43:41.450Z,3.30
2023-04-30T08:46:35.563Z,3.40
2023-04-30T08:49:25.569Z,3.20
2023-04-30T08:52:15.350Z,3.80
2023-04-30T08:55:08.253Z,3.00
2023-04-30T08:57:56.901Z,3.20
2023-04-30T09:00:46.299Z,3.00
2023-04-30T09:03:35.007Z,3.10
2023-04-30T09:06:24.526Z,3.40
2023-04-30T09:09:15.202Z,4.50
2023-04-30T09:12:20.524Z,3.30
2023-04-30T09:15:09.671Z,3.60
2023-04-30T09:18:18.834Z,3.30
2023-04-30T09:21:10.452Z,3.80
2023-04-30T09:24:01.982Z,3.30
2023-04-30T09:26:51.594Z,3.70
2023-04-30T09:29:41.179Z,3.50
2023-04-30T09:32:32.113Z,3.70
2023-04-30T09:35:32.756Z,3.50
2023-04-30T09:38:26.264Z,3.30
2023-04-30T09:41:28.859Z,3.70
2023-04-30T09:44:29.204Z,3.30
2023-04-30T09:47:19.788Z,2.60
2023-04-30T09:50:08.830Z,2.60
2023-04-30T09:53:09.803Z,3.50
2023-04-30T09:55:59.116Z,3.20
2023-04-30T09:58:51.553Z,2.90
2023-04-30T10:01:41.254Z,3.20
2023-04-30T10:04:38.860Z,3.10
2023-04-30T10:07:34.398Z,3.10
2023-04-30T10:10:26.096Z,2.70
2023-04-30T10:13:19.881Z,2.60
2023-04-30T10:16:18.815Z,2.50
2023-04-30T10:19:12.591Z,2.40
2023-04-30T10:22:02.352Z,2.30
2023-04-30T10:24:51.097Z,2.50
2023-04-30T10:27:39.965Z,2.60
2023-04-30T10:30:31.727Z,2.80
2023-04-30T10:33:32.920Z,2.50
2023-04-30T10:39:33.001Z,2.90
2023-04-30T10:42:21.600Z,3.20
2023-04-30T10:45:10.915Z,3.00
2023-04-30T10:48:03.717Z,2.80
2023-04-30T10:50:57.853Z,3.50
2023-04-30T10:53:52.408Z,3.00
2023-04-30T10:56:44.880Z,2.70
2023-04-30T10:59:35.036Z,3.10
2023-04-30T11:02:25.488Z,2.80
2023-04-30T11:05:15.916Z,3.40
2023-04-30T11:08:06.433Z,2.70
2023-04-30T11:11:03.750Z,3.40
2023-04-30T11:14:01.984Z,3.10
2023-04-30T11:16:53.684Z,3.70
2023-04-30T11:19:53.734Z,3.90
2023-04-30T11:22:42.549Z,3.80
2023-04-30T11:25:40.350Z,3.90
2023-04-30T11:28:31.006Z,3.50
2023-04-30T11:31:20.561Z,4.40
2023-04-30T11:34:09.258Z,3.10
2023-04-30T11:36:59.574Z,2.60
2023-04-30T11:39:50.257Z,2.90
2023-04-30T11:42:45.440Z,3.60
2023-04-30T11:45:34.831Z,3.40
2023-04-30T11:48:23.912Z,3.30
2023-04-30T11:51:21.807Z,3.30
2023-04-30T11:54:14.514Z,3.60
2023-04-30T11:57:07.819Z,3.20
2023-04-30T11:59:57.020Z,2.90
2023-04-30T12:02:49.012Z,2.90
2023-04-30T12:05:41.313Z,2.60
2023-04-30T12:08:30.073Z,3.10
2023-04-30T12:11:25.506Z,2.40
2023-04-30T12:14:15.291Z,2.20
2023-04-30T12:17:04.310Z,2.60
2023-04-30T12:19:53.206Z,2.10
2023-04-30T12:22:44.241Z,2.30
2023-04-30T12:25:41.280Z,2.50
2023-04-30T12:28:31.257Z,2.20
2023-04-30T12:31:20.236Z,2.10
2023-04-30T12:34:14.134Z,2.10
2023-04-30T12:37:02.733Z,1.80
2023-04-30T12:39:51.627Z,1.80
2023-04-30T12:42:43.671Z,1.80
2023-04-30T12:45:52.039Z,1.90
2023-04-30T12:48:47.643Z,1.70
2023-04-30T12:51:36.806Z,1.80
2023-04-30T12:54:33.476Z,2.30
2023-04-30T12:57:22.674Z,2.20
2023-04-30T13:00:11.626Z,1.70
2023-04-30T13:03:00.835Z,2.00
2023-04-30T13:05:52.834Z,2.20
2023-04-30T13:08:50.307Z,1.50
2023-04-30T13:11:47.290Z,1.40
2023-04-30T13:14:36.818Z,2.00
2023-04-30T13:17:26.437Z,2.70
2023-04-30T13:20:18.684Z,1.70
2023-04-30T13:23:07.489Z,2.40
2023-04-30T13:25:56.676Z,1.90
2023-04-30T13:28:45.372Z,3.50
2023-04-30T13:31:34.148Z,2.10
2023-04-30T13:34:22.887Z,1.60
2023-04-30T13:37:12.414Z,1.70
2023-04-30T13:40:01.686Z,1.50
2023-04-30T13:42:53.388Z,1.60
2023-04-30T13:45:41.877Z,1.80
2023-04-30T13:48:33.396Z,1.60
2023-04-30T13:51:22.156Z,2.10
2023-04-30T13:54:11.040Z,1.70
2023-04-30T13:56:59.957Z,1.40
2023-04-30T13:59:49.318Z,1.90
2023-04-30T14:02:38.154Z,1.90
2023-04-30T14:05:28.079Z,1.90
2023-04-30T14:08:16.941Z,2.10
2023-04-30T14:11:05.768Z,1.80
2023-04-30T14:13:55.382Z,2.00
2023-04-30T14:16:45.096Z,1.60
2023-04-30T14:19:33.940Z,1.60
2023-04-30T14:22:24.547Z,1.70
2023-04-30T14:25:13.544Z,1.60
2023-04-30T14:28:04.575Z,2.40
2023-04-30T14:30:53.192Z,1.50
2023-04-30T14:33:42.001Z,1.80
2023-04-30T14:36:31.530Z,1.90
2023-04-30T14:39:20.720Z,1.60
2023-04-30T14:42:09.673Z,1.60
2023-04-30T14:44:58.457Z,1.70
2023-04-30T14:47:47.149Z,1.60
2023-04-30T14:59:49.555Z,1.80
2023-04-30T15:02:38.573Z,2.20
2023-04-30T15:05:28.867Z,1.70
2023-04-30T15:08:17.511Z,1.70
2023-04-30T15:17:18.072Z,1.70
2023-04-30T15:20:07.712Z,1.90
2023-04-30T15:22:56.679Z,1.90
2023-04-30T15:25:45.543Z,2.10
2023-04-30T15:28:34.727Z,1.70
2023-04-30T15:31:24.253Z,1.60
2023-04-30T15:34:13.295Z,2.10
2023-04-30T15:37:02.439Z,1.50
2023-04-30T15:39:51.639Z,1.80
2023-04-30T15:42:41.124Z,8.20
2023-04-30T15:45:30.550Z,2.10
2023-04-30T15:48:19.465Z,2.00
2023-04-30T15:51:09.008Z,1.60
2023-04-30T15:53:58.046Z,1.90
2023-04-30T15:56:47.887Z,1.80
2023-04-30T15:59:36.773Z,1.90
2023-04-30T16:02:25.705Z,2.40
2023-04-30T16:05:15.182Z,2.20
2023-04-30T16:08:04.706Z,2.00
2023-04-30T16:10:54.263Z,2.70
2023-04-30T16:13:43.220Z,1.60
2023-04-30T16:16:33.921Z,2.00
2023-04-30T16:19:23.038Z,3.20
2023-04-30T16:22:13.166Z,2.00
2023-04-30T16:25:01.950Z,5.30
2023-04-30T16:27:53.191Z,2.00
2023-04-30T16:30:44.270Z,1.80
2023-04-30T16:33:32.879Z,3.10
2023-04-30T16:36:23.397Z,7.30
2023-04-30T16:39:17.312Z,7.70
2023-04-30T16:42:05.959Z,8.20
2023-04-30T16:45:34.014Z,4.40
2023-04-30T16:48:23.695Z,2.40
2023-04-30T16:51:20.178Z,2.60
2023-04-30T16:54:09.348Z,1.80
2023-04-30T16:56:58.574Z,1.80
2023-04-30T16:59:50.677Z,2.20
2023-04-30T17:02:41.158Z,3.70
2023-04-30T17:05:34.666Z,2.00
2023-04-30T17:08:23.682Z,1.60
2023-04-30T17:11:12.710Z,2.00
2023-04-30T17:14:01.554Z,1.80
2023-04-30T17:16:50.347Z,2.20
2023-04-30T17:19:41.625Z,2.30
2023-04-30T17:25:19.759Z,2.80
2023-04-30T17:28:08.535Z,2.60
2023-04-30T17:30:58.052Z,2.10
2023-04-30T17:33:47.055Z,3.10
2023-04-30T17:36:35.952Z,4.80
2023-04-30T17:39:25.321Z,3.00
2023-04-30T17:42:14.294Z,3.40
2023-04-30T17:45:06.589Z,2.50
2023-04-30T17:47:55.388Z,1.80
2023-04-30T17:50:45.053Z,2.10
2023-04-30T17:53:33.865Z,1.90
2023-04-30T17:56:26.286Z,2.10
2023-04-30T17:59:14.967Z,3.40
2023-04-30T18:02:05.647Z,2.30
2023-04-30T18:04:54.428Z,2.50
2023-04-30T18:07:43.210Z,2.60
2023-04-30T18:10:32.031Z,2.40
2023-04-30T18:13:21.047Z,2.10
2023-04-30T18:16:09.775Z,2.40
2023-04-30T18:18:59.832Z,2.60
2023-04-30T18:21:48.897Z,2.90
2023-04-30T18:24:38.599Z,1.90
2023-04-30T18:27:27.807Z,2.80
2023-04-30T18:30:16.640Z,2.20
2023-04-30T18:33:06.623Z,2.60
2023-04-30T18:35:57.203Z,2.60
2023-04-30T18:38:46.490Z,2.80
2023-04-30T18:41:35.395Z,3.30
2023-04-30T18:44:34.516Z,3.30
2023-04-30T18:47:23.834Z,2.60
2023-04-30T18:50:17.070Z,2.80
2023-04-30T18:53:07.263Z,2.60
2023-04-30T18:55:59.306Z,3.70
2023-04-30T18:58:48.279Z,3.10
2023-04-30T19:01:37.021Z,3.00
2023-04-30T19:04:27.058Z,3.60
2023-04-30T19:07:16.314Z,4.30
2023-04-30T19:10:07.802Z,4.30
2023-04-30T19:12:57.478Z,3.80
2023-04-30T19:15:48.708Z,4.70
2023-04-30T19:18:40.539Z,3.90
2023-04-30T19:21:30.759Z,4.00
2023-04-30T19:24:19.582Z,4.40
2023-04-30T19:27:08.812Z,5.20
2023-04-30T19:29:58.052Z,5.80
2023-04-30T19:32:47.097Z,5.80
2023-04-30T19:35:38.659Z,6.50
2023-04-30T19:38:27.294Z,7.00
2023-04-30T19:41:17.017Z,7.60
2023-04-30T19:44:07.858Z,7.10
2023-04-30T19:46:56.678Z,6.90
2023-04-30T19:49:47.864Z,7.30
2023-04-30T19:52:36.858Z,7.40
2023-04-30T19:55:28.613Z,6.80
2023-04-30T19:58:17.623Z,7.00
2023-04-30T20:01:06.577Z,7.00
2023-04-30T20:03:55.559Z,7.70
2023-04-30T20:06:45.674Z,6.70
2023-04-30T20:09:34.583Z,7.00
2023-04-30T20:12:23.203Z,7.60
2023-04-30T20:15:12.036Z,7.50
2023-04-30T20:18:01.485Z,7.40
2023-04-30T20:20:52.414Z,8.30
2023-04-30T20:23:41.392Z,8.30
2023-04-30T20:26:30.240Z,8.50
2023-04-30T20:29:20.839Z,7.30
2023-04-30T20:32:09.978Z,7.70
2023-04-30T20:34:59.160Z,9.20
2023-04-30T20:37:50.330Z,8.20
2023-04-30T20:40:40.598Z,7.80
2023-04-30T20:43:29.732Z,8.30
2023-04-30T20:46:18.533Z,8.00
2023-04-30T20:49:07.552Z,7.50
2023-04-30T20:51:56.564Z,7.30
2023-04-30T20:54:45.916Z,8.40
2023-04-30T20:57:34.996Z,8.50
2023-04-30T21:00:25.559Z,7.80
2023-04-30T21:03:14.924Z,8.30
2023-04-30T21:06:04.118Z,8.50
2023-04-30T21:08:53.112Z,7.30
2023-04-30T21:11:42.119Z,7.90
2023-04-30T21:14:32.016Z,7.20
2023-04-30T21:17:20.869Z,7.90
2023-04-30T21:20:10.135Z,8.00
2023-04-30T21:22:58.949Z,8.10
2023-04-30T21:25:47.928Z,8.10
2023-04-30T21:28:36.688Z,8.80
2023-04-30T21:31:25.572Z,8.80
2023-04-30T21:34:14.622Z,8.70
2023-04-30T21:37:03.508Z,8.50
2023-04-30T21:39:52.535Z,8.40
2023-04-30T21:42:41.495Z,8.90
2023-04-30T21:45:32.470Z,9.00
2023-04-30T21:48:21.373Z,11.70
2023-04-30T21:51:15.009Z,21.90
2023-04-30T21:54:04.103Z,14.10
2023-04-30T21:56:52.901Z,10.20
2023-04-30T21:59:42.325Z,9.50
2023-04-30T22:02:32.802Z,8.90
2023-04-30T22:05:21.732Z,9.30
2023-04-30T22:08:11.043Z,11.50
2023-04-30T22:11:00.728Z,9.70
2023-04-30T22:13:49.759Z,9.70
2023-04-30T22:16:38.655Z,11.60
2023-04-30T22:19:27.614Z,10.20
2023-04-30T22:22:16.766Z,9.40
2023-04-30T22:25:05.998Z,10.20
2023-04-30T22:27:54.626Z,10.90
2023-04-30T22:30:43.590Z,10.70
2023-04-30T22:33:36.771Z,11.80
2023-04-30T22:36:25.698Z,12.00
2023-04-30T22:39:14.549Z,12.40
2023-04-30T22:42:04.630Z,12.60
2023-04-30T22:44:54.813Z,11.70
2023-04-30T22:47:45.857Z,13.00
2023-04-30T22:50:34.766Z,12.40
2023-04-30T22:53:23.953Z,11.80
2023-04-30T22:56:13.113Z,12.30
2023-04-30T22:59:01.990Z,13.80
2023-04-30T23:01:50.721Z,14.00
2023-04-30T23:04:39.662Z,14.60
2023-04-30T23:07:28.347Z,15.00
2023-04-30T23:10:17.422Z,13.80
2023-04-30T23:13:06.087Z,13.80
2023-04-30T23:15:59.112Z,15.60
2023-04-30T23:18:48.979Z,15.40
2023-04-30T23:21:37.791Z,14.00
2023-04-30T23:24:26.979Z,10.90
2023-04-30T23:27:17.402Z,11.00
2023-04-30T23:30:07.079Z,11.00
2023-04-30T23:32:56.609Z,10.70
2023-04-30T23:35:46.128Z,10.50
2023-04-30T23:38:34.994Z,11.10
2023-04-30T23:41:23.684Z,11.60
2023-04-30T23:44:13.430Z,10.50
2023-04-30T23:47:02.232Z,9.90
2023-04-30T23:49:51.173Z,10.40
2023-04-30T23:52:40.980Z,10.50
2023-04-30T23:55:29.608Z,10.40
2023-04-30T23:58:18.283Z,9.50
